createdAt,value
2022-08-21T00:00:10.072Z,23.74
2022-08-21T00:01:09.944Z,23.69
2022-08-21T00:02:10.088Z,23.74
2022-08-21T00:03:10.032Z,23.74
2022-08-21T00:04:09.917Z,23.74
2022-08-21T00:05:10.004Z,23.63
2022-08-21T00:06:13.955Z,23.69
2022-08-21T00:07:09.972Z,23.69
2022-08-21T00:08:09.993Z,23.74
2022-08-21T00:09:09.959Z,23.74
2022-08-21T00:10:09.944Z,23.69
2022-08-21T00:11:09.977Z,23.69
2022-08-21T00:12:09.914Z,23.74
2022-08-21T00:13:09.903Z,24.06
2022-08-21T00:14:09.915Z,23.74
2022-08-21T00:15:09.864Z,23.74
2022-08-21T00:16:09.804Z,23.69
2022-08-21T00:17:09.841Z,23.69
2022-08-21T00:18:09.716Z,23.74
2022-08-21T00:19:09.834Z,23.69
2022-08-21T00:20:09.822Z,24.17
2022-08-21T00:21:09.800Z,23.69
2022-08-21T00:22:09.780Z,23.69
2022-08-21T00:23:09.645Z,23.69
2022-08-21T00:24:09.778Z,23.69
2022-08-21T00:25:09.622Z,23.69
2022-08-21T00:26:09.724Z,23.69
2022-08-21T00:27:09.592Z,24.17
2022-08-21T00:28:09.589Z,23.74
2022-08-21T00:29:09.599Z,23.69
2022-08-21T00:30:09.600Z,23.69
2022-08-21T00:31:09.535Z,23.69
2022-08-21T00:32:09.524Z,23.69
2022-08-21T00:33:09.514Z,23.74
2022-08-21T00:34:09.517Z,23.69
2022-08-21T00:35:09.484Z,23.79
2022-08-21T00:36:09.476Z,23.69
2022-08-21T00:37:09.455Z,23.69
2022-08-21T00:38:09.463Z,23.69
2022-08-21T00:39:09.465Z,23.69
2022-08-21T00:40:09.460Z,24.12
2022-08-21T00:41:36.365Z,23.74
2022-08-21T00:42:10.434Z,23.69
2022-08-21T00:43:09.384Z,23.69
2022-08-21T00:44:09.375Z,23.69
2022-08-21T00:45:09.371Z,23.69
2022-08-21T00:46:09.336Z,23.69
2022-08-21T00:47:09.324Z,23.74
2022-08-21T00:48:09.319Z,23.69
2022-08-21T00:49:09.314Z,23.69
2022-08-21T00:50:09.311Z,23.69
2022-08-21T00:51:10.274Z,23.69
2022-08-21T00:52:09.261Z,23.69
2022-08-21T00:53:09.253Z,23.69
2022-08-21T00:54:13.009Z,23.69
2022-08-21T00:55:10.224Z,23.69
2022-08-21T00:56:09.217Z,23.74
2022-08-21T00:57:09.194Z,23.69
2022-08-21T00:58:09.184Z,23.74
2022-08-21T00:59:09.175Z,23.69
2022-08-21T01:00:09.144Z,23.69
2022-08-21T01:01:09.175Z,23.63
2022-08-21T01:02:09.128Z,23.96
2022-08-21T01:03:09.170Z,23.69
2022-08-21T01:04:09.112Z,23.74
2022-08-21T01:05:09.085Z,23.69
2022-08-21T01:06:09.065Z,23.74
2022-08-21T01:07:09.063Z,23.69
2022-08-21T01:08:09.052Z,23.69
2022-08-21T01:09:09.045Z,23.74
2022-08-21T01:10:09.013Z,23.69
2022-08-21T01:11:10.010Z,23.69
2022-08-21T01:12:08.983Z,23.69
2022-08-21T01:13:08.982Z,23.69
2022-08-21T01:14:08.974Z,23.69
2022-08-21T01:15:08.963Z,23.69
2022-08-21T01:16:08.933Z,23.74
2022-08-21T01:17:08.924Z,23.74
2022-08-21T01:18:08.913Z,23.74
2022-08-21T01:19:08.922Z,23.69
2022-08-21T01:20:08.891Z,23.69
2022-08-21T01:21:08.873Z,23.69
2022-08-21T01:22:08.866Z,23.69
2022-08-21T01:23:08.843Z,23.74
2022-08-21T01:24:08.855Z,23.74
2022-08-21T01:25:08.833Z,23.69
2022-08-21T01:26:08.802Z,23.69
2022-08-21T01:27:08.802Z,23.69
2022-08-21T01:28:08.773Z,23.69
2022-08-21T01:29:08.817Z,23.69
2022-08-21T01:30:08.752Z,23.69
2022-08-21T01:31:08.743Z,23.69
2022-08-21T01:32:08.724Z,23.69
2022-08-21T01:33:08.713Z,23.69
2022-08-21T01:34:08.714Z,23.69
2022-08-21T01:35:08.693Z,23.74
2022-08-21T01:36:08.675Z,23.69
2022-08-21T01:37:08.662Z,23.74
2022-08-21T01:38:08.643Z,23.69
2022-08-21T01:39:08.651Z,23.69
2022-08-21T01:40:08.676Z,23.69
2022-08-21T01:41:08.623Z,23.74
2022-08-21T01:42:08.623Z,23.69
2022-08-21T01:43:08.604Z,23.74
2022-08-21T01:44:08.585Z,23.74
2022-08-21T01:45:08.560Z,23.69
2022-08-21T01:46:08.544Z,23.69
2022-08-21T01:47:08.531Z,23.74
2022-08-21T01:48:08.520Z,23.69
2022-08-21T01:49:08.520Z,23.69
2022-08-21T01:50:08.490Z,23.69
2022-08-21T01:51:08.481Z,23.74
2022-08-21T01:52:09.663Z,23.74
2022-08-21T01:53:08.453Z,23.69
2022-08-21T01:54:08.451Z,23.69
2022-08-21T01:55:08.429Z,23.74
2022-08-21T01:56:12.371Z,23.69
2022-08-21T01:57:08.741Z,23.69
2022-08-21T01:58:08.382Z,23.69
2022-08-21T01:59:08.391Z,23.74
2022-08-21T02:00:08.352Z,23.69
2022-08-21T02:01:08.494Z,23.74
2022-08-21T02:02:08.332Z,23.69
2022-08-21T02:03:08.322Z,23.69
2022-08-21T02:04:08.322Z,23.74
2022-08-21T02:05:08.317Z,23.69
2022-08-21T02:06:08.286Z,23.69
2022-08-21T02:07:10.349Z,23.69
2022-08-21T02:08:08.253Z,23.69
2022-08-21T02:09:08.253Z,23.74
2022-08-21T02:10:08.246Z,23.69
2022-08-21T02:11:08.222Z,23.79
2022-08-21T02:12:08.311Z,23.69
2022-08-21T02:13:08.201Z,23.74
2022-08-21T02:14:09.189Z,23.69
2022-08-21T02:15:08.167Z,23.74
2022-08-21T02:16:08.150Z,23.69
2022-08-21T02:17:09.713Z,23.58
2022-08-21T02:18:08.131Z,23.69
2022-08-21T02:19:08.120Z,23.69
2022-08-21T02:20:08.090Z,23.69
2022-08-21T02:21:08.082Z,23.74
2022-08-21T02:22:08.061Z,23.69
2022-08-21T02:23:08.061Z,23.69
2022-08-21T02:24:08.052Z,23.69
2022-08-21T02:25:08.031Z,23.69
2022-08-21T02:26:08.045Z,23.69
2022-08-21T02:27:08.016Z,23.74
2022-08-21T02:28:07.980Z,23.69
2022-08-21T02:29:07.990Z,23.69
2022-08-21T02:30:07.962Z,23.69
2022-08-21T02:31:07.957Z,23.69
2022-08-21T02:32:07.938Z,23.69
2022-08-21T02:33:07.931Z,23.90
2022-08-21T02:34:09.185Z,23.69
2022-08-21T02:35:07.912Z,23.69
2022-08-21T02:36:07.882Z,23.74
2022-08-21T02:37:07.877Z,23.79
2022-08-21T02:38:07.856Z,23.69
2022-08-21T02:39:08.860Z,23.69
2022-08-21T02:40:07.883Z,23.69
2022-08-21T02:41:07.820Z,23.69
2022-08-21T02:42:07.800Z,23.69
2022-08-21T02:43:07.790Z,23.69
2022-08-21T02:44:07.789Z,23.63
2022-08-21T02:45:07.781Z,23.69
2022-08-21T02:46:07.757Z,23.69
2022-08-21T02:47:07.740Z,23.69
2022-08-21T02:48:07.725Z,23.74
2022-08-21T02:49:07.729Z,23.69
2022-08-21T02:50:07.699Z,23.69
2022-08-21T02:51:07.690Z,23.69
2022-08-21T02:52:07.670Z,23.69
2022-08-21T02:53:07.659Z,21.59
2022-08-21T02:54:07.658Z,23.69
2022-08-21T02:55:07.639Z,23.74
2022-08-21T02:56:07.619Z,23.74
2022-08-21T02:57:07.608Z,23.69
2022-08-21T02:58:07.593Z,23.69
2022-08-21T02:59:07.607Z,23.74
2022-08-21T03:00:07.571Z,23.69
2022-08-21T03:01:07.559Z,23.74
2022-08-21T03:02:07.591Z,23.69
2022-08-21T03:03:07.528Z,23.74
2022-08-21T03:04:07.530Z,23.69
2022-08-21T03:05:07.508Z,23.69
2022-08-21T03:06:07.488Z,23.74
2022-08-21T03:07:11.228Z,23.69
2022-08-21T03:08:07.458Z,23.69
2022-08-21T03:09:07.461Z,23.69
2022-08-21T03:10:07.436Z,23.74
2022-08-21T03:11:07.740Z,23.69
2022-08-21T03:12:07.408Z,23.63
2022-08-21T03:13:07.399Z,23.74
2022-08-21T03:14:07.397Z,23.69
2022-08-21T03:15:07.377Z,23.74
2022-08-21T03:16:09.897Z,23.69
2022-08-21T03:17:07.348Z,23.69
2022-08-21T03:18:07.326Z,23.69
2022-08-21T03:19:07.336Z,23.69
2022-08-21T03:20:07.315Z,23.69
2022-08-21T03:21:07.295Z,23.74
2022-08-21T03:22:07.277Z,23.69
2022-08-21T03:23:12.500Z,23.74
2022-08-21T03:24:08.266Z,23.69
2022-08-21T03:25:07.238Z,23.74
2022-08-21T03:26:07.226Z,23.69
2022-08-21T03:27:09.482Z,23.69
2022-08-21T03:28:07.206Z,23.69
2022-08-21T03:29:07.205Z,23.69
2022-08-21T03:30:07.175Z,23.69
2022-08-21T03:31:07.166Z,23.69
2022-08-21T03:32:07.148Z,23.69
2022-08-21T03:33:07.145Z,23.69
2022-08-21T03:34:07.146Z,23.69
2022-08-21T03:35:07.114Z,23.69
2022-08-21T03:36:07.097Z,23.74
2022-08-21T03:37:07.087Z,23.69
2022-08-21T03:38:07.068Z,23.69
2022-08-21T03:39:07.074Z,23.74
2022-08-21T03:40:07.090Z,23.74
2022-08-21T03:41:07.035Z,23.69
2022-08-21T03:42:07.016Z,23.69
2022-08-21T03:43:07.005Z,23.74
2022-08-21T03:44:06.995Z,23.69
2022-08-21T03:45:06.976Z,23.69
2022-08-21T03:46:06.961Z,23.74
2022-08-21T03:47:06.956Z,23.69
2022-08-21T03:48:07.605Z,23.69
2022-08-21T03:49:06.945Z,23.69
2022-08-21T03:50:06.913Z,23.69
2022-08-21T03:51:06.905Z,23.69
2022-08-21T03:52:06.887Z,23.74
2022-08-21T03:53:06.875Z,23.63
2022-08-21T03:54:06.875Z,23.74
2022-08-21T03:55:06.844Z,23.69
2022-08-21T03:56:06.833Z,23.53
2022-08-21T03:57:06.824Z,23.69
2022-08-21T03:58:16.537Z,23.69
2022-08-21T03:59:07.812Z,23.74
2022-08-21T04:00:06.783Z,23.69
2022-08-21T04:01:06.774Z,23.85
2022-08-21T04:02:06.808Z,23.69
2022-08-21T04:03:06.742Z,23.69
2022-08-21T04:04:06.755Z,23.69
2022-08-21T04:05:06.714Z,23.79
2022-08-21T04:06:06.702Z,23.69
2022-08-21T04:07:06.684Z,23.69
2022-08-21T04:08:06.672Z,23.69
2022-08-21T04:09:06.673Z,23.69
2022-08-21T04:10:06.643Z,23.69
2022-08-21T04:11:06.647Z,23.69
2022-08-21T04:12:06.613Z,23.69
2022-08-21T04:13:06.646Z,23.74
2022-08-21T04:14:06.613Z,23.69
2022-08-21T04:15:06.581Z,23.69
2022-08-21T04:16:06.566Z,23.69
2022-08-21T04:17:06.553Z,23.69
2022-08-21T04:18:06.607Z,23.74
2022-08-21T04:19:06.803Z,23.69
2022-08-21T04:20:06.503Z,23.74
2022-08-21T04:21:06.495Z,23.69
2022-08-21T04:22:06.486Z,23.69
2022-08-21T04:23:06.479Z,23.69
2022-08-21T04:24:06.463Z,23.74
2022-08-21T04:25:06.456Z,23.69
2022-08-21T04:26:06.422Z,23.69
2022-08-21T04:27:06.424Z,23.69
2022-08-21T04:28:06.403Z,23.69
2022-08-21T04:29:06.402Z,23.74
2022-08-21T04:30:06.383Z,23.69
2022-08-21T04:31:06.362Z,23.74
2022-08-21T04:32:06.367Z,23.26
2022-08-21T04:33:06.342Z,23.69
2022-08-21T04:34:06.341Z,23.63
2022-08-21T04:35:06.322Z,23.74
2022-08-21T04:36:06.293Z,23.69
2022-08-21T04:37:06.297Z,23.69
2022-08-21T04:38:06.271Z,23.74
2022-08-21T04:39:06.288Z,23.69
2022-08-21T04:40:06.290Z,23.69
2022-08-21T04:41:06.232Z,23.69
2022-08-21T04:42:06.221Z,23.74
2022-08-21T04:43:06.208Z,23.26
2022-08-21T04:44:06.200Z,23.69
2022-08-21T04:45:06.181Z,23.79
2022-08-21T04:46:06.168Z,23.31
2022-08-21T04:47:06.151Z,23.31
2022-08-21T04:48:09.603Z,23.69
2022-08-21T04:49:07.142Z,23.31
2022-08-21T04:50:06.111Z,23.69
2022-08-21T04:51:06.100Z,23.69
2022-08-21T04:52:06.090Z,23.69
2022-08-21T04:53:06.078Z,23.31
2022-08-21T04:54:06.083Z,23.31
2022-08-21T04:55:06.057Z,23.69
2022-08-21T04:56:06.035Z,23.69
2022-08-21T04:57:06.020Z,23.74
2022-08-21T04:58:06.011Z,22.72
2022-08-21T04:59:06.003Z,23.69
2022-08-21T05:00:05.988Z,23.31
2022-08-21T05:01:05.994Z,23.74
2022-08-21T05:02:05.959Z,23.69
2022-08-21T05:03:05.939Z,23.69
2022-08-21T05:04:05.941Z,23.31
2022-08-21T05:05:05.919Z,23.31
2022-08-21T05:06:05.907Z,23.31
2022-08-21T05:07:05.880Z,23.26
2022-08-21T05:08:05.879Z,23.69
2022-08-21T05:09:05.879Z,22.72
2022-08-21T05:10:05.859Z,23.69
2022-08-21T05:11:05.830Z,23.31
2022-08-21T05:12:05.829Z,23.31
2022-08-21T05:13:05.811Z,23.31
2022-08-21T05:14:05.830Z,23.74
2022-08-21T05:15:05.789Z,23.69
2022-08-21T05:16:05.770Z,23.69
2022-08-21T05:17:05.749Z,23.31
2022-08-21T05:18:05.749Z,23.31
2022-08-21T05:19:05.739Z,23.31
2022-08-21T05:20:05.727Z,23.36
2022-08-21T05:21:05.698Z,23.69
2022-08-21T05:22:05.689Z,22.77
2022-08-21T05:23:05.677Z,23.69
2022-08-21T05:24:05.686Z,23.31
2022-08-21T05:25:10.335Z,23.31
2022-08-21T05:26:06.647Z,23.69
2022-08-21T05:27:06.626Z,23.31
2022-08-21T05:28:05.607Z,23.63
2022-08-21T05:29:08.542Z,23.74
2022-08-21T05:30:06.615Z,23.69
2022-08-21T05:31:05.570Z,23.31
2022-08-21T05:32:05.557Z,23.69
2022-08-21T05:33:05.538Z,23.53
2022-08-21T05:34:05.547Z,22.72
2022-08-21T05:35:05.518Z,23.31
2022-08-21T05:36:05.511Z,23.31
2022-08-21T05:37:07.683Z,23.69
2022-08-21T05:38:05.480Z,23.31
2022-08-21T05:39:05.477Z,23.69
2022-08-21T05:40:22.260Z,23.31
2022-08-21T05:41:06.499Z,23.74
2022-08-21T05:42:05.442Z,23.31
2022-08-21T05:43:05.416Z,23.26
2022-08-21T05:44:10.219Z,23.31
2022-08-21T05:45:06.387Z,23.36
2022-08-21T05:46:05.377Z,23.31
2022-08-21T05:47:05.364Z,22.72
2022-08-21T05:48:05.347Z,22.72
2022-08-21T05:49:05.337Z,22.72
2022-08-21T05:50:05.336Z,23.31
2022-08-21T05:51:05.296Z,23.31
2022-08-21T05:52:05.287Z,22.72
2022-08-21T05:53:07.150Z,23.31
2022-08-21T05:54:05.266Z,22.72
2022-08-21T05:55:05.280Z,23.31
2022-08-21T05:56:05.237Z,23.74
2022-08-21T05:57:05.216Z,23.31
2022-08-21T05:58:05.342Z,23.31
2022-08-21T05:59:08.707Z,22.72
2022-08-21T06:00:05.253Z,22.72
2022-08-21T06:01:05.204Z,23.31
2022-08-21T06:02:05.955Z,23.26
2022-08-21T06:03:05.206Z,23.31
2022-08-21T06:04:05.136Z,23.74
2022-08-21T06:05:05.816Z,23.31
2022-08-21T06:06:05.116Z,23.69
2022-08-21T06:07:05.087Z,23.31
2022-08-21T06:08:05.157Z,22.77
2022-08-21T06:09:05.359Z,23.69
2022-08-21T06:10:05.066Z,23.31
2022-08-21T06:11:05.085Z,23.36
2022-08-21T06:12:05.027Z,22.72
2022-08-21T06:13:05.007Z,23.31
2022-08-21T06:14:05.013Z,23.36
2022-08-21T06:15:04.996Z,23.31
2022-08-21T06:16:04.976Z,23.31
2022-08-21T06:17:04.958Z,23.31
2022-08-21T06:18:05.051Z,23.31
2022-08-21T06:19:04.937Z,23.31
2022-08-21T06:20:04.995Z,23.31
2022-08-21T06:21:05.578Z,23.31
2022-08-21T06:22:04.895Z,23.31
2022-08-21T06:23:05.178Z,23.31
2022-08-21T06:24:04.895Z,23.31
2022-08-21T06:25:05.100Z,23.31
2022-08-21T06:26:04.901Z,23.31
2022-08-21T06:27:04.816Z,23.31
2022-08-21T06:28:04.818Z,23.42
2022-08-21T06:29:04.815Z,23.31
2022-08-21T06:30:05.300Z,23.69
2022-08-21T06:31:04.856Z,23.31
2022-08-21T06:32:04.832Z,23.31
2022-08-21T06:33:04.766Z,23.36
2022-08-21T06:34:04.748Z,23.31
2022-08-21T06:35:04.746Z,23.31
2022-08-21T06:36:04.705Z,23.31
2022-08-21T06:37:04.813Z,23.31
2022-08-21T06:38:04.678Z,23.31
2022-08-21T06:39:12.297Z,23.31
2022-08-21T06:40:05.725Z,23.36
2022-08-21T06:41:05.636Z,23.31
2022-08-21T06:42:05.015Z,23.31
2022-08-21T06:43:05.607Z,23.31
2022-08-21T06:44:04.616Z,23.36
2022-08-21T06:45:04.596Z,23.31
2022-08-21T06:46:04.576Z,23.31
2022-08-21T06:47:04.557Z,23.36
2022-08-21T06:48:04.546Z,23.31
2022-08-21T06:49:04.544Z,23.04
2022-08-21T06:50:04.516Z,23.31
2022-08-21T06:51:04.516Z,23.31
2022-08-21T06:52:04.487Z,23.26
2022-08-21T06:53:04.480Z,23.31
2022-08-21T06:54:04.497Z,23.31
2022-08-21T06:55:04.446Z,23.36
2022-08-21T06:56:04.653Z,23.31
2022-08-21T06:57:04.448Z,21.59
2022-08-21T06:58:04.464Z,23.36
2022-08-21T06:59:04.616Z,23.31
2022-08-21T07:00:04.393Z,23.36
2022-08-21T07:01:04.433Z,23.31
2022-08-21T07:02:04.370Z,23.26
2022-08-21T07:03:04.547Z,23.31
2022-08-21T07:04:04.349Z,23.31
2022-08-21T07:05:10.151Z,23.31
2022-08-21T07:06:05.583Z,23.31
2022-08-21T07:07:04.600Z,23.31
2022-08-21T07:08:04.278Z,23.31
2022-08-21T07:09:04.277Z,23.31
2022-08-21T07:10:04.257Z,23.31
2022-08-21T07:11:04.247Z,23.36
2022-08-21T07:12:04.736Z,23.31
2022-08-21T07:13:04.641Z,23.36
2022-08-21T07:14:04.216Z,23.36
2022-08-21T07:15:04.188Z,23.31
2022-08-21T07:16:04.539Z,23.31
2022-08-21T07:17:04.157Z,23.36
2022-08-21T07:18:04.145Z,23.36
2022-08-21T07:19:04.287Z,23.31
2022-08-21T07:20:04.127Z,23.31
2022-08-21T07:21:04.159Z,23.36
2022-08-21T07:22:04.097Z,23.31
2022-08-21T07:23:04.087Z,23.31
2022-08-21T07:24:04.107Z,23.36
2022-08-21T07:25:04.281Z,23.31
2022-08-21T07:26:04.344Z,23.31
2022-08-21T07:27:08.199Z,23.31
2022-08-21T07:28:05.215Z,23.31
2022-08-21T07:29:04.016Z,23.31
2022-08-21T07:30:04.000Z,23.31
2022-08-21T07:31:04.176Z,23.36
2022-08-21T07:32:03.968Z,23.36
2022-08-21T07:33:04.191Z,22.56
2022-08-21T07:34:03.939Z,23.36
2022-08-21T07:35:03.942Z,23.31
2022-08-21T07:36:03.907Z,23.36
2022-08-21T07:37:06.037Z,23.31
2022-08-21T07:38:04.879Z,23.31
2022-08-21T07:39:03.868Z,23.36
2022-08-21T07:40:03.921Z,23.31
2022-08-21T07:41:03.851Z,23.31
2022-08-21T07:42:08.043Z,23.36
2022-08-21T07:43:03.827Z,23.31
2022-08-21T07:44:03.826Z,23.36
2022-08-21T07:45:03.799Z,23.26
2022-08-21T07:46:03.787Z,23.31
2022-08-21T07:47:03.791Z,23.31
2022-08-21T07:48:03.747Z,23.31
2022-08-21T07:49:03.741Z,23.31
2022-08-21T07:50:03.738Z,23.31
2022-08-21T07:51:03.723Z,23.36
2022-08-21T07:52:03.710Z,23.36
2022-08-21T07:53:03.680Z,23.36
2022-08-21T07:54:03.669Z,23.31
2022-08-21T07:55:06.227Z,23.36
2022-08-21T07:56:03.669Z,23.31
2022-08-21T07:57:03.620Z,23.42
2022-08-21T07:58:03.622Z,23.31
2022-08-21T07:59:03.598Z,23.31
2022-08-21T08:00:03.601Z,23.26
2022-08-21T08:01:03.648Z,23.31
2022-08-21T08:02:03.599Z,23.31
2022-08-21T08:03:03.542Z,23.36
2022-08-21T08:04:03.577Z,23.31
2022-08-21T08:05:03.529Z,23.31
2022-08-21T08:06:03.520Z,23.36
2022-08-21T08:07:03.495Z,23.31
2022-08-21T08:08:03.482Z,23.31
2022-08-21T08:09:03.505Z,23.31
2022-08-21T08:10:03.470Z,23.31
2022-08-21T08:11:03.440Z,23.31
2022-08-21T08:12:03.432Z,23.31
2022-08-21T08:13:03.415Z,23.36
2022-08-21T08:14:03.415Z,22.77
2022-08-21T08:15:03.400Z,23.31
2022-08-21T08:16:03.379Z,23.31
2022-08-21T08:17:03.378Z,23.36
2022-08-21T08:18:03.351Z,23.31
2022-08-21T08:19:03.331Z,23.31
2022-08-21T08:20:03.336Z,23.36
2022-08-21T08:21:03.301Z,23.36
2022-08-21T08:22:03.318Z,23.36
2022-08-21T08:23:03.449Z,23.31
2022-08-21T08:24:19.603Z,23.31
2022-08-21T08:25:07.557Z,23.36
2022-08-21T08:26:04.248Z,23.31
2022-08-21T08:27:03.246Z,23.31
2022-08-21T08:28:03.223Z,22.77
2022-08-21T08:29:03.204Z,23.31
2022-08-21T08:30:03.201Z,22.72
2022-08-21T08:31:03.175Z,23.36
2022-08-21T08:32:03.169Z,23.31
2022-08-21T08:33:03.144Z,23.36
2022-08-21T08:34:03.132Z,23.31
2022-08-21T08:35:03.138Z,23.31
2022-08-21T08:36:07.043Z,23.36
2022-08-21T08:37:04.124Z,23.31
2022-08-21T08:38:03.091Z,23.63
2022-08-21T08:39:03.065Z,23.36
2022-08-21T08:40:04.512Z,23.31
2022-08-21T08:41:03.051Z,23.31
2022-08-21T08:42:03.035Z,22.72
2022-08-21T08:43:04.016Z,23.36
2022-08-21T08:44:03.006Z,23.31
2022-08-21T08:45:03.002Z,22.83
2022-08-21T08:46:02.974Z,23.36
2022-08-21T08:47:02.968Z,23.36
2022-08-21T08:48:02.961Z,23.31
2022-08-21T08:49:02.942Z,23.36
2022-08-21T08:50:03.204Z,22.72
2022-08-21T08:51:02.936Z,23.31
2022-08-21T08:52:02.895Z,22.72
2022-08-21T08:53:02.890Z,22.72
2022-08-21T08:54:02.871Z,23.36
2022-08-21T08:55:02.866Z,22.77
2022-08-21T08:56:02.863Z,22.77
2022-08-21T08:57:02.914Z,22.72
2022-08-21T08:58:03.046Z,22.77
2022-08-21T08:59:02.805Z,22.77
2022-08-21T09:00:02.803Z,23.36
2022-08-21T09:01:02.873Z,22.77
2022-08-21T09:02:02.784Z,22.77
2022-08-21T09:03:02.772Z,22.72
2022-08-21T09:04:02.746Z,22.77
2022-08-21T09:05:02.752Z,22.77
2022-08-21T09:06:02.717Z,22.77
2022-08-21T09:07:02.713Z,22.77
2022-08-21T09:08:02.695Z,22.77
2022-08-21T09:09:02.691Z,22.77
2022-08-21T09:10:02.683Z,22.77
2022-08-21T09:11:02.654Z,22.83
2022-08-21T09:12:02.709Z,22.72
2022-08-21T09:13:02.625Z,22.77
2022-08-21T09:14:02.622Z,22.72
2022-08-21T09:15:02.638Z,22.72
2022-08-21T09:16:02.589Z,22.77
2022-08-21T09:17:02.592Z,22.72
2022-08-21T09:18:02.559Z,22.72
2022-08-21T09:19:03.547Z,22.72
2022-08-21T09:20:02.544Z,22.77
2022-08-21T09:21:02.526Z,22.77
2022-08-21T09:22:02.506Z,22.72
2022-08-21T09:23:02.498Z,22.77
2022-08-21T09:24:02.481Z,22.77
2022-08-21T09:25:02.495Z,22.72
2022-08-21T09:26:02.457Z,22.72
2022-08-21T09:27:02.450Z,22.72
2022-08-21T09:28:02.427Z,22.77
2022-08-21T09:29:02.428Z,22.77
2022-08-21T09:30:02.417Z,23.36
2022-08-21T09:31:02.419Z,22.72
2022-08-21T09:32:02.395Z,22.77
2022-08-21T09:33:02.377Z,22.77
2022-08-21T09:34:02.351Z,22.72
2022-08-21T09:35:02.358Z,23.31
2022-08-21T09:36:02.318Z,23.31
2022-08-21T09:37:02.326Z,22.77
2022-08-21T09:38:02.308Z,23.36
2022-08-21T09:39:02.288Z,23.31
2022-08-21T09:40:02.327Z,22.72
2022-08-21T09:41:02.274Z,23.36
2022-08-21T09:42:02.251Z,23.36
2022-08-21T09:43:02.257Z,23.31
2022-08-21T09:44:02.230Z,23.31
2022-08-21T09:45:02.230Z,22.77
2022-08-21T09:46:02.200Z,23.36
2022-08-21T09:47:02.192Z,23.36
2022-08-21T09:48:02.203Z,23.31
2022-08-21T09:49:02.168Z,23.31
2022-08-21T09:50:02.160Z,23.36
2022-08-21T09:51:02.140Z,23.36
2022-08-21T09:52:02.122Z,23.31
2022-08-21T09:53:02.119Z,23.36
2022-08-21T09:54:02.099Z,23.36
2022-08-21T09:55:02.101Z,23.31
2022-08-21T09:56:02.071Z,23.31
2022-08-21T09:57:02.071Z,23.42
2022-08-21T09:58:02.041Z,23.36
2022-08-21T09:59:02.048Z,23.36
2022-08-21T10:00:02.030Z,23.36
2022-08-21T10:01:02.091Z,23.36
2022-08-21T10:02:01.991Z,23.31
2022-08-21T10:03:01.980Z,23.36
2022-08-21T10:04:01.965Z,23.20
2022-08-21T10:05:02.052Z,23.36
2022-08-21T10:06:01.971Z,23.31
2022-08-21T10:07:01.936Z,23.31
2022-08-21T10:08:01.903Z,23.36
2022-08-21T10:09:01.904Z,23.36
2022-08-21T10:10:01.894Z,22.72
2022-08-21T10:11:01.872Z,22.77
2022-08-21T10:12:01.864Z,23.31
2022-08-21T10:13:01.855Z,22.77
2022-08-21T10:14:01.822Z,23.36
2022-08-21T10:15:04.306Z,22.72
2022-08-21T10:16:02.827Z,22.72
2022-08-21T10:17:01.790Z,22.77
2022-08-21T10:18:01.775Z,22.72
2022-08-21T10:19:01.763Z,22.77
2022-08-21T10:20:01.754Z,22.77
2022-08-21T10:21:01.735Z,22.77
2022-08-21T10:22:01.724Z,23.36
2022-08-21T10:23:02.490Z,22.77
2022-08-21T10:24:01.692Z,22.77
2022-08-21T10:25:01.704Z,22.72
2022-08-21T10:26:14.012Z,22.77
2022-08-21T10:27:02.661Z,22.72
2022-08-21T10:28:01.636Z,23.31
2022-08-21T10:29:01.627Z,22.77
2022-08-21T10:30:01.624Z,22.77
2022-08-21T10:31:01.617Z,22.77
2022-08-21T10:32:01.585Z,22.83
2022-08-21T10:33:01.575Z,22.77
2022-08-21T10:34:01.575Z,22.77
2022-08-21T10:35:01.566Z,22.77
2022-08-21T10:36:01.528Z,22.77
2022-08-21T10:37:05.274Z,22.72
2022-08-21T10:38:02.508Z,22.77
2022-08-21T10:40:02.553Z,22.77
2022-08-21T10:41:01.476Z,22.72
2022-08-21T10:42:01.456Z,22.72
2022-08-21T10:43:01.455Z,22.77
2022-08-21T10:44:01.434Z,22.72
2022-08-21T10:45:01.427Z,22.72
2022-08-21T10:46:01.406Z,22.77
2022-08-21T10:47:01.407Z,22.72
2022-08-21T10:48:01.397Z,22.77
2022-08-21T10:49:01.366Z,22.77
2022-08-21T10:50:01.361Z,22.72
2022-08-21T10:51:01.338Z,22.77
2022-08-21T10:52:01.477Z,22.77
2022-08-21T10:53:01.562Z,22.77
2022-08-21T10:54:01.392Z,22.72
2022-08-21T10:55:01.298Z,22.72
2022-08-21T10:56:01.278Z,22.77
2022-08-21T10:57:01.259Z,22.77
2022-08-21T10:58:01.243Z,22.77
2022-08-21T10:59:08.739Z,22.72
2022-08-21T11:00:01.229Z,22.72
2022-08-21T11:01:01.252Z,22.77
2022-08-21T11:02:01.179Z,23.36
2022-08-21T11:03:01.178Z,22.72
2022-08-21T11:04:01.158Z,22.72
2022-08-21T11:05:01.159Z,22.77
2022-08-21T11:06:01.129Z,22.77
2022-08-21T11:07:01.128Z,22.77
2022-08-21T11:08:01.236Z,22.99
2022-08-21T11:09:01.104Z,22.77
2022-08-21T11:10:01.213Z,22.77
2022-08-21T11:11:01.070Z,22.77
2022-08-21T11:12:11.528Z,22.34
2022-08-21T11:13:02.040Z,22.77
2022-08-21T11:14:01.045Z,22.83
2022-08-21T11:15:01.189Z,22.77
2022-08-21T11:16:01.034Z,22.72
2022-08-21T11:17:01.015Z,22.72
2022-08-21T11:18:00.970Z,22.77
2022-08-21T11:19:00.971Z,22.77
2022-08-21T11:20:00.941Z,22.72
2022-08-21T11:21:00.952Z,22.77
2022-08-21T11:22:00.921Z,22.77
2022-08-21T11:23:03.698Z,22.77
2022-08-21T11:24:00.891Z,22.72
2022-08-21T11:25:00.883Z,22.77
2022-08-21T11:26:00.873Z,22.77
2022-08-21T11:27:00.853Z,22.77
2022-08-21T11:28:00.833Z,22.77
2022-08-21T11:29:00.825Z,22.72
2022-08-21T11:30:00.812Z,22.77
2022-08-21T11:31:01.072Z,22.77
2022-08-21T11:32:00.813Z,22.77
2022-08-21T11:33:00.861Z,22.77
2022-08-21T11:34:00.764Z,22.77
2022-08-21T11:35:00.753Z,22.77
2022-08-21T11:36:00.745Z,23.31
2022-08-21T11:37:00.723Z,22.77
2022-08-21T11:38:00.705Z,22.77
2022-08-21T11:39:00.704Z,22.72
2022-08-21T11:40:00.708Z,22.72
2022-08-21T11:41:00.684Z,22.77
2022-08-21T11:42:00.656Z,22.77
2022-08-21T11:43:00.644Z,22.77
2022-08-21T11:44:00.656Z,22.72
2022-08-21T11:45:00.625Z,22.72
2022-08-21T11:46:00.616Z,22.77
2022-08-21T11:47:00.597Z,22.77
2022-08-21T11:48:00.584Z,23.31
2022-08-21T11:49:00.566Z,22.77
2022-08-21T11:50:00.551Z,22.83
2022-08-21T11:51:00.553Z,22.72
2022-08-21T11:52:00.522Z,22.77
2022-08-21T11:53:00.630Z,22.77
2022-08-21T11:54:00.494Z,23.36
2022-08-21T11:55:00.493Z,23.36
2022-08-21T11:56:00.485Z,23.47
2022-08-21T11:57:00.455Z,22.77
2022-08-21T11:58:00.445Z,22.77
2022-08-21T11:59:00.436Z,23.31
2022-08-21T12:00:00.418Z,22.72
2022-08-21T12:01:00.416Z,22.77
2022-08-21T12:02:00.421Z,22.72
2022-08-21T12:03:00.442Z,22.72
2022-08-21T12:04:00.358Z,22.93
2022-08-21T12:05:00.346Z,23.36
2022-08-21T12:06:01.347Z,22.77
2022-08-21T12:07:00.326Z,22.77
2022-08-21T12:08:01.091Z,23.36
2022-08-21T12:09:00.310Z,23.36
2022-08-21T12:10:00.277Z,22.77
2022-08-21T12:11:00.281Z,23.31
2022-08-21T12:12:00.287Z,23.36
2022-08-21T12:13:00.298Z,23.36
2022-08-21T12:14:00.229Z,22.72
2022-08-21T12:15:00.224Z,23.36
2022-08-21T12:16:00.237Z,23.31
2022-08-21T12:17:00.189Z,23.36
2022-08-21T12:18:00.176Z,23.31
2022-08-21T12:19:00.168Z,22.77
2022-08-21T12:20:00.218Z,22.77
2022-08-21T12:21:00.148Z,23.36
2022-08-21T12:22:00.132Z,23.31
2022-08-21T12:23:00.117Z,23.36
2022-08-21T12:24:00.114Z,23.36
2022-08-21T12:25:00.113Z,23.36
2022-08-21T12:26:00.082Z,23.31
2022-08-21T12:27:00.059Z,23.36
2022-08-21T12:28:00.050Z,23.36
2022-08-21T12:29:00.041Z,23.31
2022-08-21T12:30:00.039Z,23.36
2022-08-21T12:31:00.022Z,23.04
2022-08-21T12:32:00.000Z,23.36
2022-08-21T12:33:00.094Z,23.31
2022-08-21T12:33:59.973Z,23.31
2022-08-21T12:34:59.971Z,23.31
2022-08-21T12:35:59.943Z,23.36
2022-08-21T12:36:59.933Z,23.36
2022-08-21T12:37:59.920Z,23.36
2022-08-21T12:38:59.911Z,23.36
2022-08-21T12:39:59.956Z,23.36
2022-08-21T12:40:59.881Z,23.36
2022-08-21T12:42:01.937Z,23.36
2022-08-21T12:43:00.121Z,23.42
2022-08-21T12:43:59.854Z,23.36
2022-08-21T12:44:59.855Z,23.36
2022-08-21T12:45:59.820Z,23.36
2022-08-21T12:46:59.819Z,23.31
2022-08-21T12:47:59.783Z,23.31
2022-08-21T12:48:59.786Z,23.36
2022-08-21T12:49:59.775Z,23.36
2022-08-21T12:50:59.764Z,23.31
2022-08-21T12:51:59.733Z,23.31
2022-08-21T12:52:59.938Z,23.36